createdAt,value
2022-09-12T00:04:59.123Z,99922.31
2022-09-12T00:15:26.395Z,99925.34
2022-09-12T00:26:29.950Z,99923.17
2022-09-12T00:37:04.606Z,99925.08
2022-09-12T00:47:29.836Z,99919.27
2022-09-12T00:58:07.649Z,99919.15
2022-09-12T01:09:00.743Z,99924.92
2022-09-12T01:20:31.504Z,99931.87
2022-09-12T01:32:05.102Z,99931.62
2022-09-12T01:42:41.998Z,99939.02
2022-09-12T01:53:09.755Z,99945.48
2022-09-12T02:04:23.834Z,99950.17
2022-09-12T02:15:33.466Z,99950.28
2022-09-12T02:25:46.065Z,99953.45
2022-09-12T02:36:44.280Z,99961.78
2022-09-12T02:47:40.951Z,99962.91
2022-09-12T02:58:11.849Z,99967.29
2022-09-12T03:09:04.442Z,99970.28
2022-09-12T03:20:20.290Z,99980.00
2022-09-12T03:31:36.310Z,99990.10
2022-09-12T03:42:07.000Z,100001.24
2022-09-12T03:52:36.803Z,100010.42
2022-09-12T04:02:59.120Z,100014.88
2022-09-12T04:13:54.518Z,100018.80
2022-09-12T04:24:30.766Z,100025.01
2022-09-12T04:34:58.169Z,100030.34
2022-09-12T04:45:06.423Z,100027.27
2022-09-12T04:56:08.356Z,100040.28
2022-09-12T05:07:18.631Z,100036.63
2022-09-12T05:18:26.934Z,100048.87
2022-09-12T05:29:33.912Z,100053.49
2022-09-12T05:40:29.720Z,100067.11
2022-09-12T05:51:31.942Z,100073.27
2022-09-12T06:01:50.693Z,100074.31
2022-09-12T06:12:27.917Z,100074.93
2022-09-12T06:22:44.927Z,100069.91
2022-09-12T06:32:57.149Z,100072.81
2022-09-12T06:43:03.261Z,100079.36
2022-09-12T06:53:51.036Z,100078.13
2022-09-12T07:04:08.756Z,100082.02
2022-09-12T07:14:17.343Z,100089.73
2022-09-12T07:24:26.304Z,100095.14
2022-09-12T07:34:38.424Z,100107.02
2022-09-12T07:45:05.541Z,100121.66
2022-09-12T07:55:50.407Z,100133.45
2022-09-12T08:06:30.511Z,100142.58
2022-09-12T08:16:42.757Z,100144.42
2022-09-12T08:26:52.391Z,100151.02
2022-09-12T08:37:19.948Z,100151.63
2022-09-12T08:47:58.438Z,100155.05
2022-09-12T08:58:50.831Z,100152.57
2022-09-12T09:10:15.252Z,100158.44
2022-09-12T09:21:33.000Z,100155.73
2022-09-12T09:32:47.838Z,100163.37
2022-09-12T09:43:58.373Z,100160.80
2022-09-12T09:54:52.323Z,100170.51
2022-09-12T10:05:05.447Z,100178.65
2022-09-12T10:15:31.596Z,100188.65
2022-09-12T10:25:35.062Z,100197.20
2022-09-12T10:36:02.303Z,100203.45
2022-09-12T10:46:38.126Z,100207.72
2022-09-12T10:57:31.366Z,100215.73
2022-09-12T11:08:53.696Z,100219.40
2022-09-12T11:19:25.853Z,100223.80
2022-09-12T11:29:59.476Z,100223.11
2022-09-12T11:40:32.065Z,100222.23
2022-09-12T11:50:57.942Z,100222.69
2022-09-12T12:01:23.328Z,100226.27
2022-09-12T12:11:49.268Z,100230.16
2022-09-12T12:22:51.332Z,100227.17
2022-09-12T12:33:43.278Z,100232.16
2022-09-12T12:44:44.790Z,100234.95
2022-09-12T12:55:42.478Z,100232.09
2022-09-12T13:06:10.488Z,100239.64
2022-09-12T13:16:32.524Z,100242.70
2022-09-12T13:27:19.382Z,100244.75
2022-09-12T13:38:20.907Z,100245.14
2022-09-12T13:48:44.692Z,100245.77
2022-09-12T13:59:00.483Z,100250.27
2022-09-12T14:09:12.990Z,100242.52
2022-09-12T14:19:29.574Z,100246.55
2022-09-12T14:29:35.294Z,100245.95
2022-09-12T14:39:45.710Z,100244.67
2022-09-12T14:50:22.382Z,100246.22
2022-09-12T15:00:26.514Z,100239.17
2022-09-12T15:10:37.844Z,100245.60
2022-09-12T15:20:47.973Z,100249.84
2022-09-12T15:31:06.003Z,100254.23
2022-09-12T15:41:38.280Z,100256.89
2022-09-12T15:51:44.569Z,100261.39
2022-09-12T16:01:53.158Z,100258.30
2022-09-12T16:12:01.757Z,100256.45
2022-09-12T16:22:52.762Z,100255.41
2022-09-12T16:32:58.934Z,100261.86
2022-09-12T16:43:05.416Z,100256.69
2022-09-12T16:53:11.679Z,100253.97
2022-09-12T17:03:18.028Z,100254.45
2022-09-12T17:13:41.130Z,100261.00
2022-09-12T17:24:18.501Z,100272.25
2022-09-12T17:35:12.484Z,100274.92
2022-09-12T17:45:53.339Z,100274.75
2022-09-12T17:56:33.131Z,100273.61
2022-09-12T18:06:40.034Z,100277.14
2022-09-12T18:16:43.891Z,100275.83
2022-09-12T18:26:59.300Z,100276.02
2022-09-12T18:37:07.997Z,100279.19
2022-09-12T18:47:13.862Z,100275.90
2022-09-12T18:57:24.619Z,100279.45
2022-09-12T19:07:51.863Z,100273.38
2022-09-12T19:17:55.587Z,100281.52
2022-09-12T19:28:10.083Z,100292.60
2022-09-12T19:38:25.192Z,100285.98
2022-09-12T19:48:49.625Z,100271.56
2022-09-12T19:58:58.465Z,100269.41
2022-09-12T20:09:26.957Z,100262.27
2022-09-12T20:19:33.638Z,100248.50
2022-09-12T20:29:46.479Z,100257.91
2022-09-12T20:40:17.814Z,100266.16
2022-09-12T20:51:29.735Z,100259.14
2022-09-12T21:02:15.027Z,100254.55
2022-09-12T21:13:03.772Z,100248.09
2022-09-12T21:23:55.822Z,100254.66
2022-09-12T21:34:18.466Z,100254.84
2022-09-12T21:44:39.370Z,100257.91
2022-09-12T21:55:00.689Z,100250.79
2022-09-12T22:05:42.935Z,100241.30
2022-09-12T22:16:29.833Z,100240.38
2022-09-12T22:27:05.690Z,100240.95
2022-09-12T22:37:53.589Z,100238.14
2022-09-12T22:48:12.876Z,100229.42
2022-09-12T22:59:01.255Z,100230.27
2022-09-12T23:09:43.721Z,100230.84
2022-09-12T23:20:16.276Z,100234.83
2022-09-12T23:30:42.433Z,100225.05
2022-09-12T23:41:40.615Z,100211.52
2022-09-12T23:52:16.246Z,100206.05
